Portada
METAR-TAF:

METAR-TAF

Aeropuertos :

Aeropuerto de Cairns

Cairns, Australia

latitud: 16-53S, longitud: 145-45E, altitud: 3 m

Observación

El informe se hizo hace 23 minutos, a las 19:30 UTC
Viento 9 kt del sur
Temperatura 20°C
Humedad 73%
Presión 1018 hPa
Visibilidad 10 km o más
Escasas nubes a una altura de 2500 ft

METAR: YBCS 211930Z 18009KT 9999 FEW025 20/15 Q1018 NOSIG

Hora: 05:53 (19:53 UTC)

Pronóstico

El informe se hizo hace 2 horas y 20 minutos, a las 17:33 UTC
Pronóstico válido del 21 a las 18 UTC al 22 a las 18 UTC
Viento 8 kt del sur
Visibilidad 10 km o más
Escasas nubes a una altura de 2500 ft
A partir de las 21 a las 2300 UTC
Viento 12 kt del sureste
Visibilidad 10 km o más
Escasas nubes a una altura de 4000 ft
A partir de las 22 a las 0800 UTC
Viento 8 kt del sur
Visibilidad 10 km o más
Escasas nubes a una altura de 2500 ft

TAF: YBCS 211733Z 2118/2218 17008KT 9999 FEW025 FM212300 14012KT 9999 FEW040 FM220800 17008KT 9999 FEW025

Observaciones y pronósticos meteorológicos de más de 4000 aeropuertos (mensajes METAR y TAF).

Los puntos amarillos y rojos representan las estaciones disponibles.

Ponga el ratón en el punto deseado para ver el nombre de la estación.

Haga clic para ver las observaciones y los pronósticos meteorológicos.

Para cambiar el mapa : haga clic en los botones verdes con una cruz de color negro para hacer un zoom, en el botón verde con un guión para alejar o en las flechas verdes para mapas adyacentes.


METAR-TAF: